Time;durP1;ratioP1;P1;durP2;ratioP2;P2;SDS_P1;SDS_P2;PMS_P1;PMS_P2;Temp;Humidity;BMP_temperature;BMP_pressure;BME280_temperature;BME280_humidity;BME280_pressure;Samples;Min_cycle;Max_cycle;Signal;HPM_P1;HPM_P2
2020/12/18 00:00:20;;;;;;;7.90;5.10;;;4.50;99.90;;;;;;4975358;28;20215;-77
2020/12/18 00:02:45;;;;;;;4.40;3.30;;;4.60;99.90;;;;;;4975396;28;20194;-77
2020/12/18 00:05:11;;;;;;;10.87;3.60;;;4.60;99.90;;;;;;4972699;28;20222;-77
2020/12/18 00:07:37;;;;;;;6.07;3.00;;;4.80;99.90;;;;;;4970521;28;20289;-77
2020/12/18 00:10:03;;;;;;;3.93;3.40;;;4.90;99.90;;;;;;4975608;28;20536;-77
2020/12/18 00:12:30;;;;;;;6.97;3.20;;;5.00;99.90;;;;;;4975402;28;20610;-77
2020/12/18 00:14:55;;;;;;;3.30;2.25;;;5.10;99.90;;;;;;4974244;28;20215;-77
2020/12/18 00:17:21;;;;;;;4.53;2.13;;;5.30;99.90;;;;;;4962977;28;20239;-77
2020/12/18 00:19:47;;;;;;;7.80;2.50;;;5.50;99.90;;;;;;4974091;28;20500;-78
2020/12/18 00:22:12;;;;;;;4.63;2.83;;;5.60;99.90;;;;;;4975472;28;20188;-78
2020/12/18 00:24:38;;;;;;;3.47;3.10;;;5.70;99.90;;;;;;4974355;28;20211;-78
2020/12/18 00:27:04;;;;;;;3.63;3.33;;;5.60;99.90;;;;;;4966053;28;20209;-78
2020/12/18 00:29:29;;;;;;;5.53;4.17;;;5.50;99.90;;;;;;4974147;28;20215;-79
2020/12/18 00:31:55;;;;;;;6.87;4.50;;;5.30;99.90;;;;;;4975128;28;20199;-78
2020/12/18 00:34:21;;;;;;;7.73;5.23;;;5.00;99.90;;;;;;4988152;28;20211;-78
2020/12/18 00:36:51;;;;;;;5.70;3.83;;;4.90;99.90;;;;;;4969196;28;20206;-78
2020/12/18 00:39:17;;;;;;;8.35;3.53;;;4.80;99.90;;;;;;4974930;28;20210;-78
2020/12/18 00:41:43;;;;;;;5.93;4.23;;;4.70;99.90;;;;;;4975128;28;20194;-78
2020/12/18 00:44:08;;;;;;;5.30;4.40;;;4.60;99.90;;;;;;4974433;28;20246;-78
2020/12/18 00:46:34;;;;;;;9.90;5.00;;;4.50;99.90;;;;;;4982763;28;20179;-78
2020/12/18 00:49:00;;;;;;;6.40;4.57;;;4.50;99.90;;;;;;4969194;28;20199;-79
2020/12/18 00:51:25;;;;;;;5.00;3.73;;;4.40;99.90;;;;;;4974913;28;20183;-78
2020/12/18 00:53:51;;;;;;;4.17;3.70;;;4.40;99.90;;;;;;4973386;28;20539;-78
2020/12/18 00:56:17;;;;;;;5.00;4.50;;;4.40;99.90;;;;;;4956112;28;20539;-78
2020/12/18 00:58:44;;;;;;;5.93;4.37;;;4.40;99.90;;;;;;4989815;28;20231;-79
2020/12/18 01:01:10;;;;;;;8.80;3.97;;;4.40;99.90;;;;;;4989011;28;20214;-78
2020/12/18 01:03:35;;;;;;;5.78;3.85;;;4.40;99.90;;;;;;4974844;28;20654;-78
2020/12/18 01:06:11;;;;;;;6.83;4.10;;;4.50;99.90;;;;;;4977005;28;20219;-78
2020/12/18 01:08:37;;;;;;;4.22;3.70;;;4.40;99.90;;;;;;4989381;28;20234;-78
2020/12/18 01:11:04;;;;;;;7.60;5.10;;;4.50;99.90;;;;;;4989083;28;20250;-78
2020/12/18 01:13:30;;;;;;;5.50;3.40;;;4.50;99.90;;;;;;4974519;28;20671;-78
2020/12/18 01:15:56;;;;;;;7.50;4.10;;;4.50;99.90;;;;;;4972335;28;20230;-78
2020/12/18 01:18:23;;;;;;;6.82;3.70;;;4.50;99.90;;;;;;4974583;28;20431;-78
2020/12/18 01:20:49;;;;;;;5.18;3.45;;;4.50;99.90;;;;;;4973317;28;20211;-78
2020/12/18 01:23:15;;;;;;;6.40;3.80;;;4.50;99.90;;;;;;4974639;28;20176;-78
2020/12/18 01:25:40;;;;;;;5.50;4.30;;;4.50;99.90;;;;;;4973636;28;20211;-78
2020/12/18 01:28:06;;;;;;;7.17;3.80;;;4.60;99.90;;;;;;4974003;28;20281;-78
2020/12/18 01:30:35;;;;;;;4.33;3.30;;;4.70;99.90;;;;;;4973633;28;20218;-78
2020/12/18 01:33:00;;;;;;;4.47;3.75;;;4.70;99.90;;;;;;4988761;28;20195;-78
2020/12/18 01:35:26;;;;;;;6.17;3.67;;;4.60;99.90;;;;;;4972685;28;20551;-78
2020/12/18 01:37:52;;;;;;;6.80;3.50;;;4.60;99.90;;;;;;4967498;28;20266;-78
2020/12/18 01:40:18;;;;;;;8.10;4.30;;;4.60;99.90;;;;;;4976814;28;20199;-78
2020/12/18 01:42:44;;;;;;;5.93;3.73;;;4.60;99.90;;;;;;4972010;28;20826;-78
2020/12/18 01:45:09;;;;;;;7.10;4.30;;;4.50;99.90;;;;;;4972790;28;20681;-79
2020/12/18 01:47:35;;;;;;;6.30;3.63;;;4.50;99.90;;;;;;4973477;28;20246;-78
2020/12/18 01:50:03;;;;;;;7.23;4.40;;;4.40;99.90;;;;;;4987882;28;20204;-77
2020/12/18 01:52:31;;;;;;;6.10;3.90;;;4.40;99.90;;;;;;4973865;28;20223;-77
2020/12/18 01:55:04;;;;;;;6.35;4.10;;;4.40;99.90;;;;;;4963252;28;20241;-77
2020/12/18 01:57:31;;;;;;;5.60;3.90;;;4.40;99.90;;;;;;4966372;28;20270;-78
2020/12/18 01:59:59;;;;;;;7.18;3.75;;;4.40;99.90;;;;;;4973522;28;20219;-77
2020/12/18 02:02:26;;;;;;;4.82;4.15;;;4.40;99.90;;;;;;4973420;28;20203;-77
2020/12/18 02:04:51;;;;;;;6.13;3.58;;;4.40;99.90;;;;;;4963374;28;20219;-77
2020/12/18 02:07:23;;;;;;;5.17;3.97;;;4.40;99.90;;;;;;4965659;28;20211;-78
2020/12/18 02:09:49;;;;;;;6.18;3.53;;;4.40;99.90;;;;;;4972744;28;20199;-77
2020/12/18 02:12:15;;;;;;;8.40;3.85;;;4.40;99.90;;;;;;4988119;28;20199;-77
2020/12/18 02:14:41;;;;;;;4.30;3.28;;;4.40;99.90;;;;;;4966327;28;20571;-77
2020/12/18 02:17:07;;;;;;;5.20;3.60;;;4.40;99.90;;;;;;4959543;28;20179;-77
2020/12/18 02:19:35;;;;;;;5.63;4.10;;;4.40;99.90;;;;;;4987490;28;20207;-77
2020/12/18 02:22:15;;;;;;;3.58;3.05;;;4.40;99.90;;;;;;4972814;28;20179;-77
2020/12/18 02:24:48;;;;;;;8.25;4.45;;;4.40;99.90;;;;;;4972582;28;20773;-78
2020/12/18 02:27:14;;;;;;;5.78;4.15;;;4.40;99.90;;;;;;4966146;28;20199;-77
2020/12/18 02:29:40;;;;;;;8.53;4.13;;;4.40;99.90;;;;;;4987723;28;20693;-77
2020/12/18 02:32:05;;;;;;;6.37;4.33;;;4.40;99.90;;;;;;4972684;28;20187;-77
2020/12/18 02:34:33;;;;;;;6.43;3.70;;;4.40;99.90;;;;;;4971812;28;20211;-77
2020/12/18 02:37:00;;;;;;;7.50;3.40;;;4.30;99.90;;;;;;4972259;28;20166;-77
2020/12/18 02:39:26;;;;;;;5.45;4.38;;;4.30;99.90;;;;;;4972085;28;20219;-77
2020/12/18 02:41:52;;;;;;;7.03;3.37;;;4.30;99.90;;;;;;4972705;28;20202;-78
2020/12/18 02:44:17;;;;;;;6.17;3.50;;;4.30;99.90;;;;;;4971806;28;20216;-77
2020/12/18 02:46:43;;;;;;;6.20;3.90;;;4.30;99.90;;;;;;4965212;28;20443;-77
2020/12/18 02:49:09;;;;;;;7.90;2.93;;;4.20;99.90;;;;;;4964387;28;20203;-77
2020/12/18 02:51:35;;;;;;;5.60;3.23;;;4.20;99.90;;;;;;4972639;28;20202;-77
2020/12/18 02:54:00;;;;;;;3.30;2.50;;;4.20;99.90;;;;;;4972333;28;20171;-78
2020/12/18 02:56:27;;;;;;;5.13;3.93;;;4.20;99.90;;;;;;4970846;28;20179;-78
2020/12/18 02:58:53;;;;;;;4.30;3.90;;;4.20;99.90;;;;;;4972415;28;20512;-78
2020/12/18 03:01:20;;;;;;;5.75;3.30;;;4.20;99.90;;;;;;4971410;28;20226;-78
2020/12/18 03:03:46;;;;;;;6.18;3.72;;;4.30;99.90;;;;;;4972707;28;20198;-78
2020/12/18 03:06:11;;;;;;;3.97;2.63;;;4.30;99.90;;;;;;4968740;28;20216;-78
2020/12/18 03:08:37;;;;;;;4.60;3.40;;;4.30;99.90;;;;;;4957022;28;20195;-78
2020/12/18 03:11:04;;;;;;;3.50;3.20;;;4.30;99.90;;;;;;4972597;28;20217;-78
2020/12/18 03:13:30;;;;;;;6.97;4.03;;;4.30;99.90;;;;;;4972536;28;20171;-78
2020/12/18 03:15:56;;;;;;;8.55;4.05;;;4.20;99.90;;;;;;4971628;28;20203;-78
2020/12/18 03:18:22;;;;;;;7.40;4.40;;;4.10;99.90;;;;;;4972515;28;20186;-79
2020/12/18 03:20:48;;;;;;;5.70;3.10;;;4.10;99.90;;;;;;4972117;28;20299;-78
2020/12/18 03:23:14;;;;;;;5.43;2.83;;;4.20;99.90;;;;;;4987759;28;20260;-79
2020/12/18 03:25:40;;;;;;;3.00;2.63;;;4.20;99.90;;;;;;4971492;28;20450;-78
2020/12/18 03:28:05;;;;;;;4.95;2.63;;;4.20;99.90;;;;;;4971938;28;20656;-78
2020/12/18 03:30:31;;;;;;;2.40;1.93;;;4.20;99.90;;;;;;4972095;28;20310;-78
2020/12/18 03:32:57;;;;;;;6.90;3.40;;;4.30;99.90;;;;;;4972583;28;20690;-79
2020/12/18 03:35:23;;;;;;;3.70;2.27;;;4.30;99.90;;;;;;4965213;28;20210;-77
2020/12/18 03:37:49;;;;;;;5.30;2.50;;;4.40;99.90;;;;;;4964080;28;20854;-77
2020/12/18 03:40:18;;;;;;;5.00;2.40;;;4.50;99.90;;;;;;4972238;28;20219;-79
2020/12/18 03:42:43;;;;;;;10.93;3.00;;;4.50;99.90;;;;;;4972426;28;20450;-78
2020/12/18 03:45:09;;;;;;;9.47;3.00;;;4.50;99.90;;;;;;4971759;28;20559;-78
2020/12/18 03:47:35;;;;;;;3.92;2.25;;;4.50;99.90;;;;;;4961264;28;20243;-78
2020/12/18 03:50:02;;;;;;;3.83;2.57;;;4.50;99.90;;;;;;4989304;28;20234;-78
2020/12/18 03:52:29;;;;;;;3.50;2.53;;;4.50;99.90;;;;;;4975277;28;20183;-78
2020/12/18 03:54:55;;;;;;;3.42;2.70;;;4.60;99.90;;;;;;4970341;28;20683;-78
2020/12/18 03:57:21;;;;;;;6.13;2.23;;;4.60;99.90;;;;;;4969452;28;20309;-78
2020/12/18 03:59:47;;;;;;;4.53;2.72;;;4.60;99.90;;;;;;4975562;28;20211;-79
2020/12/18 04:02:12;;;;;;;3.57;2.40;;;4.60;99.90;;;;;;4972085;28;20195;-79
2020/12/18 04:04:38;;;;;;;9.43;3.07;;;4.70;99.90;;;;;;4971690;28;20226;-78
2020/12/18 04:07:04;;;;;;;2.40;2.20;;;4.60;99.90;;;;;;4962029;28;20176;-78
2020/12/18 04:09:30;;;;;;;4.13;2.40;;;4.60;99.90;;;;;;4974519;28;20199;-78
2020/12/18 04:11:55;;;;;;;3.20;2.10;;;4.60;99.90;;;;;;4975846;28;20191;-78
2020/12/18 04:14:21;;;;;;;4.80;1.80;;;4.60;99.90;;;;;;4974818;28;20258;-78
2020/12/18 04:16:47;;;;;;;3.30;2.03;;;4.60;99.90;;;;;;4972476;28;20183;-78
2020/12/18 04:19:12;;;;;;;2.00;1.80;;;4.60;99.90;;;;;;4990495;28;20203;-78
2020/12/18 04:21:38;;;;;;;4.20;2.27;;;4.70;99.90;;;;;;4975764;28;20214;-78
2020/12/18 04:24:04;;;;;;;3.30;2.37;;;4.60;99.90;;;;;;4975261;28;20183;-78
2020/12/18 04:26:30;;;;;;;2.70;1.70;;;4.70;99.90;;;;;;4967796;28;20172;-78
2020/12/18 04:28:55;;;;;;;3.23;1.70;;;4.70;99.90;;;;;;4963529;28;20462;-78
2020/12/18 04:31:21;;;;;;;7.17;1.87;;;4.90;99.90;;;;;;4990660;28;20175;-78
2020/12/18 04:33:47;;;;;;;4.35;1.90;;;5.00;99.90;;;;;;4975302;28;20167;-79
2020/12/18 04:36:13;;;;;;;3.13;2.33;;;5.10;99.90;;;;;;4974056;28;20278;-78
2020/12/18 04:38:39;;;;;;;4.07;2.30;;;5.20;99.90;;;;;;4990203;28;20433;-78
2020/12/18 04:41:05;;;;;;;3.17;2.47;;;5.20;99.90;;;;;;4974640;28;20290;-78
2020/12/18 04:43:31;;;;;;;5.90;2.23;;;5.10;99.90;;;;;;4975551;28;20865;-78
2020/12/18 04:45:59;;;;;;;4.30;2.20;;;5.10;99.90;;;;;;4956560;28;20498;-78
2020/12/18 04:48:26;;;;;;;7.55;2.72;;;5.20;99.90;;;;;;4975856;28;20451;-78
2020/12/18 04:50:56;;;;;;;3.50;2.60;;;5.20;99.90;;;;;;4974430;28;20307;-77
2020/12/18 04:53:26;;;;;;;7.55;3.10;;;5.10;99.90;;;;;;4974872;28;20709;-77
2020/12/18 04:55:54;;;;;;;4.15;2.42;;;5.20;99.90;;;;;;4972860;28;20215;-77
2020/12/18 04:58:22;;;;;;;5.45;2.88;;;5.10;99.90;;;;;;4974220;28;20262;-77
2020/12/18 05:00:52;;;;;;;6.65;2.35;;;5.10;99.90;;;;;;4989482;28;20720;-77
2020/12/18 05:03:19;;;;;;;6.55;2.45;;;5.00;99.90;;;;;;4974457;28;20314;-77
2020/12/18 05:05:44;;;;;;;5.78;2.80;;;5.00;99.90;;;;;;4973093;28;20218;-78
2020/12/18 05:08:10;;;;;;;5.93;2.20;;;5.00;99.90;;;;;;4974594;28;20198;-78
2020/12/18 05:10:36;;;;;;;4.03;2.20;;;5.00;99.90;;;;;;4974567;28;20683;-78
2020/12/18 05:13:05;;;;;;;5.93;2.50;;;5.00;99.90;;;;;;4974667;28;20187;-77
2020/12/18 05:15:34;;;;;;;5.68;2.75;;;5.10;99.90;;;;;;4973456;28;20211;-77
2020/12/18 05:17:59;;;;;;;4.32;2.40;;;5.10;99.90;;;;;;4974103;28;20179;-78
2020/12/18 05:20:27;;;;;;;6.23;2.77;;;5.10;99.90;;;;;;4972992;28;20215;-78
2020/12/18 05:22:54;;;;;;;8.45;2.95;;;5.10;99.90;;;;;;4974290;28;20250;-78
2020/12/18 05:25:20;;;;;;;2.25;2.05;;;5.10;99.90;;;;;;4972484;28;20222;-78
2020/12/18 05:27:46;;;;;;;2.65;2.17;;;5.20;99.90;;;;;;4970865;28;20203;-77
2020/12/18 05:30:12;;;;;;;5.88;3.08;;;5.10;99.90;;;;;;4987999;28;20262;-77
2020/12/18 05:32:38;;;;;;;5.10;3.50;;;5.10;99.90;;;;;;4974322;28;20238;-78
2020/12/18 05:35:05;;;;;;;5.17;3.30;;;5.10;99.90;;;;;;4973224;28;20617;-77
2020/12/18 05:37:35;;;;;;;5.88;3.50;;;5.10;99.90;;;;;;4957493;28;20594;-77
2020/12/18 05:40:01;;;;;;;6.47;3.30;;;5.10;99.90;;;;;;4973831;28;20278;-77
2020/12/18 05:42:27;;;;;;;4.25;3.15;;;5.10;99.90;;;;;;4973892;28;20215;-78
2020/12/18 05:44:53;;;;;;;6.63;3.40;;;5.20;99.90;;;;;;4982113;28;20613;-78
2020/12/18 05:47:18;;;;;;;8.13;3.13;;;5.20;99.90;;;;;;4979499;28;20186;-77
2020/12/18 05:49:44;;;;;;;8.43;3.77;;;5.20;99.90;;;;;;4973028;28;20210;-78
2020/12/18 05:52:19;;;;;;;5.17;3.77;;;5.20;99.90;;;;;;4988586;28;20677;-77
2020/12/18 05:54:46;;;;;;;7.05;2.97;;;5.10;99.90;;;;;;4972845;28;20202;-77
2020/12/18 05:57:14;;;;;;;4.70;3.13;;;5.20;99.90;;;;;;4972927;28;20180;-77
2020/12/18 05:59:42;;;;;;;3.47;2.95;;;5.20;99.90;;;;;;4987818;28;20709;-77
2020/12/18 06:02:12;;;;;;;4.95;2.85;;;5.20;99.90;;;;;;4988098;28;20249;-78
2020/12/18 06:04:38;;;;;;;4.97;2.65;;;5.20;99.90;;;;;;4968070;28;20231;-77
2020/12/18 06:07:05;;;;;;;5.00;2.80;;;5.20;99.90;;;;;;4965983;28;20345;-78
2020/12/18 06:09:31;;;;;;;9.20;3.35;;;5.20;99.90;;;;;;4972944;28;20218;-77
2020/12/18 06:11:58;;;;;;;5.43;3.15;;;5.20;99.90;;;;;;4973478;28;20191;-77
2020/12/18 06:14:24;;;;;;;7.72;2.75;;;5.20;99.90;;;;;;4971434;28;20207;-78
2020/12/18 06:16:53;;;;;;;8.13;3.38;;;5.30;99.90;;;;;;4968043;28;20184;-77
2020/12/18 06:19:21;;;;;;;5.10;3.05;;;5.30;99.90;;;;;;4981123;28;20211;-78
2020/12/18 06:21:58;;;;;;;4.00;2.80;;;5.30;99.90;;;;;;4973129;28;20202;-77
2020/12/18 06:24:24;;;;;;;5.30;2.85;;;5.30;99.90;;;;;;4972374;28;20580;-78
2020/12/18 06:26:57;;;;;;;4.65;3.10;;;5.40;99.90;;;;;;4967119;28;20657;-78
2020/12/18 06:29:25;;;;;;;3.55;2.72;;;5.40;99.90;;;;;;4972273;28;20277;-79
2020/12/18 06:31:51;;;;;;;4.53;2.40;;;5.30;99.90;;;;;;4953391;28;20246;-77
2020/12/18 06:34:27;;;;;;;3.72;3.15;;;5.30;99.90;;;;;;4959168;28;20222;-78
2020/12/18 06:36:57;;;;;;;3.03;2.72;;;5.30;99.90;;;;;;4963244;28;20187;-77
2020/12/18 06:39:27;;;;;;;4.80;3.30;;;5.20;99.90;;;;;;4966342;28;20211;-77
2020/12/18 06:42:16;;;;;;;4.45;4.03;;;5.20;99.90;;;;;;4972483;28;20626;-78
2020/12/18 06:45:03;;;;;;;5.05;3.20;;;5.10;99.90;;;;;;4972581;28;20218;-77
2020/12/18 06:47:32;;;;;;;4.72;3.20;;;5.10;99.90;;;;;;4967929;28;20238;-78
2020/12/18 06:50:11;;;;;;;5.72;3.50;;;5.10;99.90;;;;;;4972515;28;20207;-78
2020/12/18 06:52:57;;;;;;;7.35;4.30;;;5.10;99.90;;;;;;4972922;28;20195;-79
2020/12/18 06:55:26;;;;;;;5.65;4.00;;;5.10;99.90;;;;;;4971146;28;20230;-79
2020/12/18 06:58:13;;;;;;;6.50;3.67;;;5.10;99.90;;;;;;4987660;28;20550;-78
2020/12/18 07:00:52;;;;;;;3.63;2.85;;;5.00;99.90;;;;;;4965931;28;20217;-78
2020/12/18 07:03:35;;;;;;;5.82;2.72;;;5.00;99.90;;;;;;4985425;28;20170;-77
2020/12/18 07:06:06;;;;;;;12.02;3.97;;;5.00;99.90;;;;;;4985136;28;20234;-79
2020/12/18 07:08:33;;;;;;;15.65;4.07;;;4.90;99.90;;;;;;4952003;28;20203;-79
2020/12/18 07:11:07;;;;;;;4.95;3.08;;;5.00;99.90;;;;;;4952687;28;20274;-78
2020/12/18 07:13:33;;;;;;;3.08;2.60;;;5.00;99.90;;;;;;4951588;28;20175;-77
2020/12/18 07:16:05;;;;;;;4.30;2.70;;;5.00;99.90;;;;;;4959088;28;20199;-78
2020/12/18 07:18:33;;;;;;;7.07;3.60;;;5.10;99.90;;;;;;4952954;29;20694;-77
2020/12/18 07:21:12;;;;;;;6.82;4.93;;;5.10;99.90;;;;;;4964412;28;20753;-77
2020/12/18 07:23:40;;;;;;;6.22;3.97;;;5.10;99.90;;;;;;4972196;28;20175;-79
2020/12/18 07:26:07;;;;;;;7.57;3.75;;;5.20;99.90;;;;;;4965364;28;20211;-78
2020/12/18 07:28:37;;;;;;;7.68;4.22;;;5.10;99.90;;;;;;4971779;28;20233;-78
2020/12/18 07:31:05;;;;;;;6.47;4.70;;;5.10;99.90;;;;;;4971507;28;20214;-78
2020/12/18 07:33:31;;;;;;;7.32;3.40;;;5.10;99.90;;;;;;4971743;28;20191;-77
2020/12/18 07:35:57;;;;;;;5.63;3.80;;;5.20;99.90;;;;;;4968022;28;20238;-78
2020/12/18 07:38:28;;;;;;;9.50;4.10;;;5.20;99.90;;;;;;4958544;28;20834;-78
2020/12/18 07:40:59;;;;;;;8.18;4.53;;;5.20;99.90;;;;;;4971999;28;20534;-78
2020/12/18 07:43:27;;;;;;;7.90;3.80;;;5.20;99.90;;;;;;4976337;28;20175;-78
2020/12/18 07:45:57;;;;;;;7.72;3.90;;;5.30;99.90;;;;;;4971644;28;20214;-78
2020/12/18 07:48:32;;;;;;;6.03;3.67;;;5.30;99.90;;;;;;4960589;28;20199;-78
2020/12/18 07:51:06;;;;;;;7.22;4.47;;;5.40;99.90;;;;;;4975546;28;20229;-78
2020/12/18 07:53:42;;;;;;;6.57;3.85;;;5.40;99.90;;;;;;4990803;28;20514;-79
2020/12/18 07:56:20;;;;;;;6.00;3.75;;;5.50;99.90;;;;;;4972124;28;20210;-78
2020/12/18 07:58:59;;;;;;;6.07;3.95;;;5.50;99.90;;;;;;4975886;28;20175;-79
2020/12/18 08:01:30;;;;;;;11.00;4.07;;;5.50;99.90;;;;;;4975007;28;20210;-78
2020/12/18 08:04:00;;;;;;;6.80;4.32;;;5.50;99.90;;;;;;4975083;28;20247;-78
2020/12/18 08:06:37;;;;;;;6.90;4.20;;;5.50;99.90;;;;;;4968593;28;20198;-78
2020/12/18 08:09:07;;;;;;;9.73;4.22;;;5.50;99.90;;;;;;4955718;28;20203;-79
2020/12/18 08:11:42;;;;;;;7.00;4.60;;;5.50;99.90;;;;;;4985456;28;20238;-78
2020/12/18 08:14:08;;;;;;;6.05;4.32;;;5.50;99.90;;;;;;4975143;28;20167;-78
2020/12/18 08:16:34;;;;;;;9.75;4.85;;;5.50;99.90;;;;;;4971019;28;20176;-78
2020/12/18 08:19:01;;;;;;;7.03;4.30;;;5.50;99.90;;;;;;4989906;28;20600;-78
2020/12/18 08:21:30;;;;;;;11.40;4.65;;;5.50;99.90;;;;;;4975377;28;20446;-78
2020/12/18 08:24:12;;;;;;;10.43;4.30;;;5.50;99.90;;;;;;4987249;23;20234;-77
2020/12/18 08:26:42;;;;;;;7.03;3.80;;;5.40;99.90;;;;;;4970452;28;20185;-77
2020/12/18 08:29:09;;;;;;;7.88;4.80;;;5.40;99.90;;;;;;4974088;28;20255;-78
2020/12/18 08:31:36;;;;;;;4.97;3.72;;;5.40;99.90;;;;;;4974561;28;20187;-78
2020/12/18 08:34:11;;;;;;;7.00;4.20;;;5.40;99.90;;;;;;4974553;28;20198;-77
2020/12/18 08:36:43;;;;;;;8.63;4.80;;;5.40;99.90;;;;;;4964063;28;20176;-77
2020/12/18 08:39:10;;;;;;;6.50;4.70;;;5.40;99.90;;;;;;4953648;28;20280;-78
2020/12/18 08:41:45;;;;;;;9.57;5.60;;;5.40;99.90;;;;;;4973097;28;20195;-77
2020/12/18 08:44:16;;;;;;;10.07;5.13;;;5.40;99.90;;;;;;4973817;28;20170;-77
2020/12/18 08:46:43;;;;;;;12.10;5.75;;;5.40;99.90;;;;;;4970357;28;20175;-77
2020/12/18 08:49:16;;;;;;;8.63;5.03;;;5.40;99.90;;;;;;4968159;28;20203;-77
2020/12/18 08:51:42;;;;;;;10.15;5.20;;;5.50;99.90;;;;;;4974106;28;20561;-77
2020/12/18 08:54:32;;;;;;;9.10;5.10;;;5.50;99.90;;;;;;4970679;28;20171;-77
2020/12/18 08:57:16;;;;;;;6.35;5.28;;;5.60;99.90;;;;;;4970575;28;20634;-78
2020/12/18 08:59:55;;;;;;;11.57;4.53;;;5.60;99.90;;;;;;4974193;28;20290;-77
2020/12/18 09:02:21;;;;;;;8.43;4.90;;;5.60;99.90;;;;;;4974314;28;20187;-77
2020/12/18 09:04:47;;;;;;;8.90;4.93;;;5.60;99.90;;;;;;4973829;28;20222;-77
2020/12/18 09:07:12;;;;;;;6.20;4.67;;;5.60;99.90;;;;;;4970583;28;20289;-77
2020/12/18 09:09:53;;;;;;;5.27;4.77;;;5.70;99.90;;;;;;4973318;28;20219;-78
2020/12/18 09:12:19;;;;;;;9.13;5.10;;;5.70;99.90;;;;;;4969131;28;20258;-77
2020/12/18 09:14:45;;;;;;;11.53;4.70;;;5.70;99.90;;;;;;4965105;28;20622;-78
2020/12/18 09:17:11;;;;;;;9.07;4.80;;;5.70;99.90;;;;;;4961460;28;20506;-78
2020/12/18 09:19:48;;;;;;;7.13;5.37;;;5.70;99.90;;;;;;4973388;28;20242;-79
2020/12/18 09:22:14;;;;;;;5.85;4.90;;;5.70;99.90;;;;;;4967824;28;20210;-77
2020/12/18 09:24:39;;;;;;;7.10;5.40;;;5.80;99.90;;;;;;4971411;28;20578;-78
2020/12/18 09:27:14;;;;;;;8.80;4.77;;;5.80;99.90;;;;;;5004506;28;20207;-77
2020/12/18 09:29:40;;;;;;;9.27;4.80;;;5.90;99.90;;;;;;4987918;28;20214;-77
2020/12/18 09:32:06;;;;;;;6.97;5.40;;;5.80;99.90;;;;;;4973548;28;20234;-78
2020/12/18 09:34:32;;;;;;;10.52;4.20;;;5.80;99.90;;;;;;4971367;28;20207;-77
2020/12/18 09:37:09;;;;;;;9.48;4.75;;;5.80;99.90;;;;;;4963001;28;20183;-79
2020/12/18 09:39:35;;;;;;;7.90;5.45;;;5.80;99.90;;;;;;4970878;28;20260;-78
2020/12/18 09:42:00;;;;;;;8.30;4.97;;;5.90;99.90;;;;;;4973192;28;20649;-78
2020/12/18 09:44:26;;;;;;;6.23;4.90;;;5.90;99.90;;;;;;4971286;28;20598;-78
2020/12/18 09:46:52;;;;;;;7.37;6.30;;;5.90;99.90;;;;;;4996288;28;20172;-77
2020/12/18 09:49:17;;;;;;;6.07;5.27;;;5.90;99.90;;;;;;4971765;28;20222;-78
2020/12/18 09:51:48;;;;;;;5.87;4.70;;;5.90;99.90;;;;;;4984718;28;20209;-77
2020/12/18 09:54:17;;;;;;;8.57;5.10;;;5.90;99.90;;;;;;4992325;28;20202;-78
2020/12/18 09:56:44;;;;;;;6.50;5.20;;;5.90;99.90;;;;;;4965714;28;20759;-77
2020/12/18 09:59:12;;;;;;;7.45;6.18;;;5.90;99.90;;;;;;4974969;28;20174;-77
2020/12/18 10:01:37;;;;;;;9.40;6.05;;;5.90;99.90;;;;;;4991528;28;20190;-78
2020/12/18 10:04:03;;;;;;;9.77;5.67;;;5.90;99.90;;;;;;4975062;28;20254;-79
2020/12/18 10:06:29;;;;;;;9.27;7.10;;;5.90;99.90;;;;;;4971766;28;20434;-77
2020/12/18 10:08:55;;;;;;;9.10;6.33;;;6.00;99.90;;;;;;4971742;28;20195;-78
2020/12/18 10:11:27;;;;;;;8.60;6.90;;;6.00;99.90;;;;;;4971843;28;20278;-77
2020/12/18 10:13:53;;;;;;;11.75;6.45;;;6.10;99.90;;;;;;4971517;28;20195;-78
2020/12/18 10:16:18;;;;;;;8.37;6.00;;;6.10;99.90;;;;;;4964193;28;20721;-77
2020/12/18 10:18:44;;;;;;;9.00;6.40;;;6.20;99.90;;;;;;4971932;28;20175;-77
2020/12/18 10:21:10;;;;;;;7.23;6.27;;;6.30;99.90;;;;;;4968966;28;20219;-77
2020/12/18 10:23:35;;;;;;;7.47;5.50;;;6.40;99.90;;;;;;4972194;28;20187;-77
2020/12/18 10:26:04;;;;;;;9.37;6.17;;;6.50;99.90;;;;;;4972052;28;20215;-77
2020/12/18 10:28:30;;;;;;;6.65;5.95;;;6.60;99.90;;;;;;4971413;28;20199;-78
2020/12/18 10:30:56;;;;;;;7.90;5.93;;;6.80;99.90;;;;;;4972406;28;20285;-78
2020/12/18 10:33:22;;;;;;;11.27;6.70;;;6.90;99.90;;;;;;4971482;28;20476;-77
2020/12/18 10:35:48;;;;;;;8.40;6.90;;;7.00;99.90;;;;;;4962139;28;20704;-77
2020/12/18 10:38:13;;;;;;;7.07;5.90;;;7.10;99.90;;;;;;4972231;28;20183;-78
2020/12/18 10:40:40;;;;;;;9.10;6.60;;;7.30;99.90;;;;;;4972007;28;20218;-77
2020/12/18 10:43:06;;;;;;;10.35;5.32;;;7.40;99.90;;;;;;4972657;28;20184;-77
2020/12/18 10:45:32;;;;;;;5.83;4.90;;;7.60;99.90;;;;;;4967467;28;20226;-78
2020/12/18 10:47:57;;;;;;;7.57;6.40;;;7.70;99.90;;;;;;4960241;28;20234;-78
2020/12/18 10:50:23;;;;;;;9.20;6.53;;;7.80;99.90;;;;;;4972060;28;20207;-77
2020/12/18 10:52:49;;;;;;;10.47;6.60;;;7.80;99.90;;;;;;4972057;28;20294;-77
2020/12/18 10:55:14;;;;;;;6.73;6.03;;;7.90;99.90;;;;;;4965002;28;20754;-76
2020/12/18 10:57:40;;;;;;;8.10;6.20;;;8.10;99.90;;;;;;4965937;28;20179;-77
2020/12/18 11:00:06;;;;;;;6.87;6.10;;;8.10;99.90;;;;;;4956171;28;20690;-78
2020/12/18 11:02:33;;;;;;;9.30;6.00;;;8.20;99.90;;;;;;4952924;28;20192;-77
2020/12/18 11:04:59;;;;;;;6.97;6.28;;;8.20;99.90;;;;;;4958264;28;20214;-79
2020/12/18 11:07:24;;;;;;;6.63;5.80;;;8.20;99.90;;;;;;4958764;28;20179;-77
2020/12/18 11:09:50;;;;;;;9.40;6.27;;;8.20;99.90;;;;;;4956565;28;20199;-77
2020/12/18 11:12:16;;;;;;;9.20;5.33;;;8.30;99.90;;;;;;4972162;28;20192;-77
2020/12/18 11:14:41;;;;;;;7.60;6.00;;;8.30;99.90;;;;;;4965782;28;20290;-77
2020/12/18 11:17:07;;;;;;;7.77;6.97;;;8.30;99.90;;;;;;4962230;28;20618;-77
2020/12/18 11:19:34;;;;;;;9.97;5.60;;;8.40;99.90;;;;;;4971107;28;20234;-77
2020/12/18 11:22:00;;;;;;;5.50;4.82;;;8.50;99.90;;;;;;4970020;28;20199;-78
2020/12/18 11:24:25;;;;;;;4.77;4.27;;;8.50;99.90;;;;;;4962640;28;20208;-78
2020/12/18 11:26:52;;;;;;;6.80;5.10;;;8.50;99.90;;;;;;4969519;28;20239;-78
2020/12/18 11:29:19;;;;;;;3.97;3.63;;;8.60;99.90;;;;;;4986242;28;20318;-77
2020/12/18 11:32:47;;;;;;;5.18;4.53;;;8.80;99.90;;;;;;4970524;28;20199;-78
2020/12/18 11:35:52;;;;;;;7.60;4.05;;;8.90;99.90;;;;;;4983737;28;20172;-77
2020/12/18 11:38:32;;;;;;;4.05;3.40;;;9.00;99.90;;;;;;4953546;28;20267;-78
2020/12/18 11:40:58;;;;;;;5.57;4.60;;;9.10;99.90;;;;;;4968141;28;20422;-78
2020/12/18 11:43:24;;;;;;;4.70;3.27;;;9.10;99.90;;;;;;4971984;28;20417;-78
2020/12/18 11:45:49;;;;;;;3.63;2.67;;;9.30;99.90;;;;;;4958799;28;20211;-79
2020/12/18 11:48:15;;;;;;;2.53;2.03;;;9.60;99.90;;;;;;4969633;28;20208;-78
2020/12/18 11:50:41;;;;;;;5.90;1.70;;;9.70;99.90;;;;;;4971244;28;20626;-78
2020/12/18 11:53:08;;;;;;;2.10;1.57;;;9.70;99.90;;;;;;4971270;28;20341;-78
2020/12/18 11:55:34;;;;;;;4.67;1.50;;;9.80;99.90;;;;;;4964079;28;20223;-77
2020/12/18 11:58:00;;;;;;;1.23;1.13;;;9.80;99.90;;;;;;4973134;28;20965;-77
2020/12/18 12:00:26;;;;;;;2.50;1.00;;;9.90;99.90;;;;;;4971154;28;20685;-77
2020/12/18 12:02:52;;;;;;;2.63;1.33;;;9.90;99.90;;;;;;4970043;28;20736;-77
2020/12/18 12:05:19;;;;;;;1.57;1.20;;;9.90;99.90;;;;;;4968407;28;20243;-77
2020/12/18 12:07:45;;;;;;;1.90;1.10;;;10.00;99.90;;;;;;4969855;28;21012;-77
2020/12/18 12:10:13;;;;;;;4.40;1.17;;;10.10;99.90;;;;;;4970706;28;20455;-77
2020/12/18 12:12:41;;;;;;;3.63;1.10;;;10.10;99.90;;;;;;4971482;28;20431;-77
2020/12/18 12:15:07;;;;;;;2.33;1.37;;;10.10;99.90;;;;;;4968418;28;20458;-78
2020/12/18 12:17:34;;;;;;;2.13;1.37;;;10.20;99.90;;;;;;4960489;28;20513;-78
2020/12/18 12:19:59;;;;;;;6.70;1.33;;;10.20;99.90;;;;;;4970645;28;21066;-78
2020/12/18 12:22:25;;;;;;;2.17;1.03;;;10.30;99.90;;;;;;4971322;28;20447;-77
2020/12/18 12:24:52;;;;;;;3.03;1.30;;;10.20;99.90;;;;;;4969597;28;20642;-78
2020/12/18 12:27:24;;;;;;;2.23;1.20;;;10.30;99.90;;;;;;4965109;28;20761;-78
2020/12/18 12:29:51;;;;;;;3.00;1.10;;;10.30;99.90;;;;;;4971797;28;20560;-78
2020/12/18 12:32:17;;;;;;;6.70;2.70;;;10.30;99.90;;;;;;4975083;28;20474;-79
2020/12/18 12:34:43;;;;;;;2.17;1.50;;;10.40;99.90;;;;;;4964576;28;20462;-77
2020/12/18 12:37:09;;;;;;;3.20;1.70;;;10.50;99.90;;;;;;4963448;28;20460;-77
2020/12/18 12:39:34;;;;;;;4.87;1.30;;;10.40;99.90;;;;;;4955228;28;20215;-77
2020/12/18 12:42:01;;;;;;;2.90;1.17;;;10.50;99.90;;;;;;4975381;28;20441;-77
2020/12/18 12:44:28;;;;;;;3.33;1.50;;;10.60;99.90;;;;;;4973326;28;20211;-78
2020/12/18 12:46:53;;;;;;;5.73;1.70;;;10.50;99.90;;;;;;4980002;28;20439;-77
2020/12/18 12:49:19;;;;;;;2.70;1.47;;;10.60;99.90;;;;;;4954460;28;20474;-77
2020/12/18 12:51:45;;;;;;;2.17;1.20;;;10.70;99.90;;;;;;4970620;28;20746;-76
2020/12/18 12:54:10;;;;;;;4.67;1.47;;;10.90;98.60;;;;;;4967110;28;20234;-76
2020/12/18 12:56:36;;;;;;;2.47;1.73;;;10.80;99.90;;;;;;4954880;28;20259;-76
2020/12/18 12:59:02;;;;;;;3.23;1.20;;;10.60;99.90;;;;;;4953470;28;20164;-76